AirNav   Everest Fuels
 
 872 users online  

MO00 Turkey Mountain Airport
Shell Knob, Missouri, USA

GOING TO SHELL KNOB?


FAA INFORMATION EFFECTIVE 10 SEPTEMBER 2020

Location

FAA Identifier: MO00
Lat/Long: 36-35-31.9850N 093-39-49.7350W
36-35.533083N 093-39.828917W
36.5922181,-93.6638153
(estimated)
Elevation: 1070 ft. / 326 m (estimated)
Variation: 04E (1985)
From city: 3 miles SW of SHELL KNOB, MO
Time zone: UTC -5 (UTC -6 during Standard Time)
Zip code: 65747

Airport Operations

Airport use: Private use. Permission required prior to landing
Activation date: 01/1965
Control tower: no
ARTCC: KANSAS CITY CENTER
FSS: COLUMBIA FLIGHT SERVICE STATION
Attendance: MAR-NOV 0900-1800
Wind indicator: yes
Segmented circle: no

Airport Communications

WX AWOS-3 at FWB (14 nm NE): 119.725 (417-272-3922)

Nearby radio navigation aids

VOR radial/distance  VOR name  Freq  Var
HROr303/27.3HARRISON VOR/DME112.5004E
RZCr043/30.3RAZORBACK VORTAC116.4004E

Airport Services

Fuel available: 100LL
Parking: tiedowns
Airframe service: NONE
Powerplant service: NONE

Runway Information

Runway 18/36

Dimensions: 3950 x 80 ft. / 1204 x 24 m
Surface: turf, in good condition
RUNWAY 18  RUNWAY 36
Latitude: 36-35.858000N36-35.208167N
Longitude: 093-39.803833W093-39.854000W
Elevation: 1070.0 ft.1029.0 ft.
Traffic pattern: leftleft
Obstructions: 43 ft. trees, 120 ft. right of centerline
+1-43' BRUSH & FENCE L & R OF CNTRLN IN APPROACH LESS THAN 20:1; +375' TERRAIN, 1 MILE N OF THR, 13:1 APPROACH (EST).
12 ft. trees, 170 ft. from runway, 45 ft. left of centerline, 14:1 slope to clear
+1-23' ROAD, BRUSH, TREES, FENCE, PLINES & GND L & R OF CNTRLN IN APPROACH LESS THAN 20:1.

Airport Ownership and Management from official FAA records

Ownership: Privately-owned
Owner: JUDY REYNOLDS
23197 MAPLE LANE
SHELL KNOB, MO 65747
Phone 417-858-6345
Manager: JUDY REYNOLDS
23197 MAPLE LANE
SHELL KNOB, MO 65747
Phone 417-671-1832

Airport Operational Statistics

Aircraft based on the field: 10
Single engine airplanes: 10
    
Aircraft operations: avg 77/week *
60% transient general aviation
40% local general aviation
* for 12-month period ending 21 February 1989

Additional Remarks

TREES, FCS, HGRS, BLDGS, GND, ROAD, SIGNS, GOLF COURSE, BRUSH, WIND INDICATOR & PLINES LCTD IN PRIM SFC.
EDDY CURRENTS NEAR SOUTH END OF RY.
FOR CD CTC SPRINGFIELD APCH AT 417-868-5620/5619.

Instrument Procedures

There are no published instrument procedures at MO00.

Some nearby airports with instrument procedures:

4M1 - Carroll County Airport (13 nm S)
94K - Cassville Municipal Airport (13 nm NW)
KFWB - Branson West Municipal Airport - Emerson Field (14 nm NE)
KPLK - M Graham Clark Downtown Airport (21 nm E)
2H2 - Jerry Sumners Sr. Aurora Municipal Airport (22 nm N)
 
Loc | Ops | Rwys | IFR | FBO | Links
Com | Nav | Svcs | Stats | Notes

Branson Jet Center
AirBoss

 
Area around MO00 (Turkey Mountain Airport)
 
Road maps at: MapQuest Bing Google
 
Aerial photo
WARNING: Photo may not be current or correct
Aerial photo of MO00 (Turkey Mountain Airport)
Photo by Janet Williams
Taken in 2008

Do you have a better or more recent aerial photo of Turkey Mountain Airport that you would like to share? If so, please send us your photo.

 
Sectional chart

 
Airport distance calculator
Flying to Turkey Mountain Airport? Find the distance to fly.

From to MO00

Sunrise and sunset
Times for 22-Sep-2020
 Local
(UTC-5)
 Zulu
(UTC)
Morning civil twilight06:3911:39
Sunrise07:0412:04
Sunset19:1000:10
Evening civil twilight19:3600:36

Current date and time
Zulu (UTC)  23-Sep-2020 03:49:15
Local (UTC-5)  22-Sep-2020 22:49:15
 
METAR
KFWB 
14nm NE 
230335Z AUTO 14006KT 120V180 10SM SCT013 17/17 A3014 RMK AO2
KBBG 
23nm E 
230335Z AUTO 15007KT 10SM FEW012 16/15 A3015 RMK AO2
KROG 
24nm SW 
230258Z AUTO 12003KT 10SM CLR 17/16 A3013 RMK AO2 SLP194 60000 T01720161 53008
KHFJ 
25nm NW 
230335Z AUTO 14004KT 10SM CLR 17/17 A3012 RMK AO2
TAF
KBBG 
23nm E 
222122Z 2221/2318 12006KT P6SM BKN020 FM222200 13005KT 4SM BR VCSH OVC025 FM230600 VRB04KT 4SM -RA BR OVC007 TEMPO 2312/2315 2SM -RA BR OVC003
KROG 
24nm SW 
221729Z 2218/2318 10003KT P6SM -RA SCT007 BKN012 TEMPO 2218/2222 5SM -SHRA BR BKN007 FM230200 09004KT P6SM VCSH OVC010 TEMPO 2302/2306 OVC007 FM230600 VRB03KT P6SM BKN007 FM231600 VRB02KT P6SM BKN010
NOTAMs
Click for the latest NOTAMs
NOTAMs are issued by the DoD/FAA and will open in a separate window not controlled by AirNav.

 

 
 

FBO, Fuel Providers, and Aircraft Ground Support

  
 Business Name 
 
 Contact 
 
 Services / Description 
 
Fuel Prices
 
Comments
  
Turkey Mountain Airpark 417-858-8888
no information available

If you are affiliated with Turkey Mountain Airpark and would like to show here your services, contact info, web link, logo, and more, click here
100LL
SS $4.29 
 Updated 19-Sep-2020
 
   write
SS=Self service
Update Fuel Prices
 

Would you like to see your business listed on this page?

 If your business provides an interesting product or service to pilots, flight crews, aircraft, or users of the Turkey Mountain Airport, you should consider listing it here.  To start the listing process, click on the button below
 
Add a business
 

Other Pages about Turkey Mountain Airport

www.turkeymountainairport.com
 
Update a link
 
Copyright © AirNav, LLC. All rights reserved. Privacy Policy  Contact